sensor_id;sensor_type;location;lat;lon;timestamp;P1;durP1;ratioP1;P2;durP2;ratioP2
54452;SDS011;40363;52.270;10.546;2023-03-23T00:01:08;3.65;;;1.50;;
54452;SDS011;40363;52.270;10.546;2023-03-23T00:03:38;6.13;;;2.08;;
54452;SDS011;40363;52.270;10.546;2023-03-23T00:06:05;5.25;;;2.22;;
54452;SDS011;40363;52.270;10.546;2023-03-23T00:08:33;4.82;;;2.30;;
54452;SDS011;40363;52.270;10.546;2023-03-23T00:11:11;7.35;;;2.60;;
54452;SDS011;40363;52.270;10.546;2023-03-23T00:13:40;6.43;;;2.67;;
54452;SDS011;40363;52.270;10.546;2023-03-23T00:16:08;6.45;;;2.38;;
54452;SDS011;40363;52.270;10.546;2023-03-23T00:18:42;10.13;;;3.40;;
54452;SDS011;40363;52.270;10.546;2023-03-23T00:21:09;9.68;;;2.28;;
54452;SDS011;40363;52.270;10.546;2023-03-23T00:23:36;5.70;;;1.70;;
54452;SDS011;40363;52.270;10.546;2023-03-23T00:26:03;4.75;;;1.65;;
54452;SDS011;40363;52.270;10.546;2023-03-23T00:28:31;4.85;;;2.10;;
54452;SDS011;40363;52.270;10.546;2023-03-23T00:30:59;3.90;;;1.95;;
54452;SDS011;40363;52.270;10.546;2023-03-23T00:33:27;8.27;;;1.73;;
54452;SDS011;40363;52.270;10.546;2023-03-23T00:35:55;2.63;;;1.45;;
54452;SDS011;40363;52.270;10.546;2023-03-23T00:38:22;3.58;;;1.77;;
54452;SDS011;40363;52.270;10.546;2023-03-23T00:40:50;6.05;;;1.90;;
54452;SDS011;40363;52.270;10.546;2023-03-23T00:43:17;1.98;;;1.40;;
54452;SDS011;40363;52.270;10.546;2023-03-23T00:45:47;6.38;;;1.65;;
54452;SDS011;40363;52.270;10.546;2023-03-23T00:48:17;3.45;;;1.30;;
54452;SDS011;40363;52.270;10.546;2023-03-23T00:50:44;2.70;;;0.98;;
54452;SDS011;40363;52.270;10.546;2023-03-23T00:53:10;1.90;;;0.85;;
54452;SDS011;40363;52.270;10.546;2023-03-23T00:55:37;1.50;;;1.10;;
54452;SDS011;40363;52.270;10.546;2023-03-23T00:58:03;2.90;;;0.98;;
54452;SDS011;40363;52.270;10.546;2023-03-23T01:00:30;1.85;;;0.98;;
54452;SDS011;40363;52.270;10.546;2023-03-23T01:02:58;2.70;;;0.80;;
54452;SDS011;40363;52.270;10.546;2023-03-23T01:05:25;1.98;;;1.05;;
54452;SDS011;40363;52.270;10.546;2023-03-23T01:07:57;1.45;;;0.90;;
54452;SDS011;40363;52.270;10.546;2023-03-23T01:10:24;0.77;;;0.70;;
54452;SDS011;40363;52.270;10.546;2023-03-23T01:12:51;1.48;;;0.80;;
54452;SDS011;40363;52.270;10.546;2023-03-23T01:15:18;4.25;;;1.40;;
54452;SDS011;40363;52.270;10.546;2023-03-23T01:17:45;1.45;;;0.70;;
54452;SDS011;40363;52.270;10.546;2023-03-23T01:20:14;1.10;;;0.70;;
54452;SDS011;40363;52.270;10.546;2023-03-23T01:22:41;1.27;;;0.82;;
54452;SDS011;40363;52.270;10.546;2023-03-23T01:25:09;1.33;;;0.90;;
54452;SDS011;40363;52.270;10.546;2023-03-23T01:27:37;1.25;;;0.90;;
54452;SDS011;40363;52.270;10.546;2023-03-23T01:30:05;1.80;;;1.17;;
54452;SDS011;40363;52.270;10.546;2023-03-23T01:32:32;3.83;;;1.15;;
54452;SDS011;40363;52.270;10.546;2023-03-23T01:34:59;2.75;;;0.90;;
54452;SDS011;40363;52.270;10.546;2023-03-23T01:37:27;3.60;;;1.00;;
54452;SDS011;40363;52.270;10.546;2023-03-23T01:39:54;2.33;;;0.93;;
54452;SDS011;40363;52.270;10.546;2023-03-23T01:42:22;4.00;;;1.88;;
54452;SDS011;40363;52.270;10.546;2023-03-23T01:47:48;3.33;;;1.70;;
54452;SDS011;40363;52.270;10.546;2023-03-23T01:50:18;1.73;;;1.30;;
54452;SDS011;40363;52.270;10.546;2023-03-23T01:52:49;1.13;;;0.70;;
54452;SDS011;40363;52.270;10.546;2023-03-23T01:55:17;3.35;;;0.93;;
54452;SDS011;40363;52.270;10.546;2023-03-23T01:57:44;2.58;;;1.20;;
54452;SDS011;40363;52.270;10.546;2023-03-23T02:00:12;1.50;;;0.80;;
54452;SDS011;40363;52.270;10.546;2023-03-23T02:02:40;0.98;;;0.70;;
54452;SDS011;40363;52.270;10.546;2023-03-23T02:05:09;4.22;;;1.10;;
54452;SDS011;40363;52.270;10.546;2023-03-23T02:07:38;5.38;;;1.10;;
54452;SDS011;40363;52.270;10.546;2023-03-23T02:10:07;1.38;;;0.82;;
54452;SDS011;40363;52.270;10.546;2023-03-23T02:12:33;1.65;;;0.88;;
54452;SDS011;40363;52.270;10.546;2023-03-23T02:15:00;2.47;;;0.85;;
54452;SDS011;40363;52.270;10.546;2023-03-23T02:17:30;3.47;;;1.23;;
54452;SDS011;40363;52.270;10.546;2023-03-23T02:20:10;2.53;;;0.80;;
54452;SDS011;40363;52.270;10.546;2023-03-23T02:22:50;1.23;;;0.90;;
54452;SDS011;40363;52.270;10.546;2023-03-23T02:25:49;1.15;;;1.02;;
54452;SDS011;40363;52.270;10.546;2023-03-23T02:28:44;1.77;;;1.05;;
54452;SDS011;40363;52.270;10.546;2023-03-23T02:31:28;2.67;;;1.23;;
54452;SDS011;40363;52.270;10.546;2023-03-23T02:34:10;2.78;;;1.17;;
54452;SDS011;40363;52.270;10.546;2023-03-23T02:36:44;2.63;;;1.67;;
54452;SDS011;40363;52.270;10.546;2023-03-23T02:39:17;3.63;;;1.73;;
54452;SDS011;40363;52.270;10.546;2023-03-23T02:41:49;2.17;;;1.50;;
54452;SDS011;40363;52.270;10.546;2023-03-23T02:44:19;3.53;;;1.65;;
54452;SDS011;40363;52.270;10.546;2023-03-23T02:46:48;3.58;;;1.88;;
54452;SDS011;40363;52.270;10.546;2023-03-23T02:49:17;4.88;;;1.77;;
54452;SDS011;40363;52.270;10.546;2023-03-23T02:51:46;2.83;;;1.15;;
54452;SDS011;40363;52.270;10.546;2023-03-23T02:54:14;7.63;;;1.90;;
54452;SDS011;40363;52.270;10.546;2023-03-23T02:56:44;2.85;;;1.27;;
54452;SDS011;40363;52.270;10.546;2023-03-23T02:59:13;3.55;;;0.85;;
54452;SDS011;40363;52.270;10.546;2023-03-23T03:01:50;2.60;;;1.08;;
54452;SDS011;40363;52.270;10.546;2023-03-23T03:04:23;1.20;;;0.82;;
54452;SDS011;40363;52.270;10.546;2023-03-23T03:06:59;2.03;;;1.60;;
54452;SDS011;40363;52.270;10.546;2023-03-23T03:09:38;1.80;;;1.02;;
54452;SDS011;40363;52.270;10.546;2023-03-23T03:12:12;1.77;;;1.00;;
54452;SDS011;40363;52.270;10.546;2023-03-23T03:14:47;0.80;;;0.80;;
54452;SDS011;40363;52.270;10.546;2023-03-23T03:17:19;0.80;;;0.75;;
54452;SDS011;40363;52.270;10.546;2023-03-23T03:19:52;1.80;;;1.25;;
54452;SDS011;40363;52.270;10.546;2023-03-23T03:22:23;5.53;;;1.10;;
54452;SDS011;40363;52.270;10.546;2023-03-23T03:24:53;2.72;;;1.48;;
54452;SDS011;40363;52.270;10.546;2023-03-23T03:27:22;1.40;;;1.30;;
54452;SDS011;40363;52.270;10.546;2023-03-23T03:29:51;1.92;;;1.30;;
54452;SDS011;40363;52.270;10.546;2023-03-23T03:32:22;1.80;;;1.30;;
54452;SDS011;40363;52.270;10.546;2023-03-23T03:34:54;3.28;;;1.13;;
54452;SDS011;40363;52.270;10.546;2023-03-23T03:37:20;3.35;;;1.30;;
54452;SDS011;40363;52.270;10.546;2023-03-23T03:39:47;2.72;;;1.27;;
54452;SDS011;40363;52.270;10.546;2023-03-23T03:42:14;3.58;;;0.98;;
54452;SDS011;40363;52.270;10.546;2023-03-23T03:44:40;2.15;;;1.10;;
54452;SDS011;40363;52.270;10.546;2023-03-23T03:47:07;1.67;;;0.90;;
54452;SDS011;40363;52.270;10.546;2023-03-23T03:49:33;1.50;;;0.95;;
54452;SDS011;40363;52.270;10.546;2023-03-23T03:52:01;3.05;;;1.02;;
54452;SDS011;40363;52.270;10.546;2023-03-23T03:54:28;3.25;;;1.52;;
54452;SDS011;40363;52.270;10.546;2023-03-23T03:56:55;3.85;;;1.60;;
54452;SDS011;40363;52.270;10.546;2023-03-23T03:59:22;2.50;;;1.45;;
54452;SDS011;40363;52.270;10.546;2023-03-23T04:01:51;2.65;;;1.25;;
54452;SDS011;40363;52.270;10.546;2023-03-23T04:04:19;1.48;;;1.27;;
54452;SDS011;40363;52.270;10.546;2023-03-23T04:06:45;2.05;;;1.20;;
54452;SDS011;40363;52.270;10.546;2023-03-23T04:09:15;1.80;;;1.25;;
54452;SDS011;40363;52.270;10.546;2023-03-23T04:11:44;2.95;;;1.40;;
54452;SDS011;40363;52.270;10.546;2023-03-23T04:14:11;2.53;;;1.23;;
54452;SDS011;40363;52.270;10.546;2023-03-23T04:16:37;2.28;;;1.48;;
54452;SDS011;40363;52.270;10.546;2023-03-23T04:19:05;1.20;;;0.98;;
54452;SDS011;40363;52.270;10.546;2023-03-23T04:21:32;2.42;;;1.45;;
54452;SDS011;40363;52.270;10.546;2023-03-23T04:23:59;2.72;;;1.58;;
54452;SDS011;40363;52.270;10.546;2023-03-23T04:26:27;3.28;;;2.40;;
54452;SDS011;40363;52.270;10.546;2023-03-23T04:28:54;5.20;;;2.20;;
54452;SDS011;40363;52.270;10.546;2023-03-23T04:31:21;4.82;;;2.20;;
54452;SDS011;40363;52.270;10.546;2023-03-23T04:33:49;5.35;;;2.78;;
54452;SDS011;40363;52.270;10.546;2023-03-23T04:36:17;6.05;;;2.58;;
54452;SDS011;40363;52.270;10.546;2023-03-23T04:38:44;5.60;;;3.08;;
54452;SDS011;40363;52.270;10.546;2023-03-23T04:41:11;5.35;;;2.65;;
54452;SDS011;40363;52.270;10.546;2023-03-23T04:43:39;4.32;;;2.30;;
54452;SDS011;40363;52.270;10.546;2023-03-23T04:46:07;5.28;;;2.35;;
54452;SDS011;40363;52.270;10.546;2023-03-23T04:48:35;6.32;;;2.17;;
54452;SDS011;40363;52.270;10.546;2023-03-23T04:51:04;4.93;;;2.33;;
54452;SDS011;40363;52.270;10.546;2023-03-23T04:53:31;5.65;;;1.90;;
54452;SDS011;40363;52.270;10.546;2023-03-23T04:55:58;3.80;;;1.50;;
54452;SDS011;40363;52.270;10.546;2023-03-23T04:58:26;4.25;;;1.80;;
54452;SDS011;40363;52.270;10.546;2023-03-23T05:00:54;4.05;;;1.88;;
54452;SDS011;40363;52.270;10.546;2023-03-23T05:03:21;1.38;;;0.90;;
54452;SDS011;40363;52.270;10.546;2023-03-23T05:05:48;2.63;;;1.63;;
54452;SDS011;40363;52.270;10.546;2023-03-23T05:08:17;3.58;;;1.15;;
54452;SDS011;40363;52.270;10.546;2023-03-23T05:10:49;2.05;;;1.08;;
54452;SDS011;40363;52.270;10.546;2023-03-23T05:13:16;4.40;;;1.30;;
54452;SDS011;40363;52.270;10.546;2023-03-23T05:15:42;1.75;;;1.00;;
54452;SDS011;40363;52.270;10.546;2023-03-23T05:18:10;5.60;;;1.73;;
54452;SDS011;40363;52.270;10.546;2023-03-23T05:20:37;3.83;;;1.58;;
54452;SDS011;40363;52.270;10.546;2023-03-23T05:23:04;3.65;;;1.52;;
54452;SDS011;40363;52.270;10.546;2023-03-23T05:25:31;2.80;;;1.83;;
54452;SDS011;40363;52.270;10.546;2023-03-23T05:28:01;1.73;;;1.10;;
54452;SDS011;40363;52.270;10.546;2023-03-23T05:30:28;2.88;;;2.38;;
54452;SDS011;40363;52.270;10.546;2023-03-23T05:32:55;2.22;;;0.90;;
54452;SDS011;40363;52.270;10.546;2023-03-23T05:35:23;1.13;;;0.85;;
54452;SDS011;40363;52.270;10.546;2023-03-23T05:37:50;1.73;;;1.30;;
54452;SDS011;40363;52.270;10.546;2023-03-23T05:40:18;2.20;;;0.80;;
54452;SDS011;40363;52.270;10.546;2023-03-23T05:42:45;2.30;;;1.30;;
54452;SDS011;40363;52.270;10.546;2023-03-23T05:45:12;4.32;;;1.58;;
54452;SDS011;40363;52.270;10.546;2023-03-23T05:47:38;3.65;;;1.40;;
54452;SDS011;40363;52.270;10.546;2023-03-23T05:50:07;1.95;;;0.93;;
54452;SDS011;40363;52.270;10.546;2023-03-23T05:52:37;2.88;;;1.25;;
54452;SDS011;40363;52.270;10.546;2023-03-23T05:55:04;1.63;;;0.90;;
54452;SDS011;40363;52.270;10.546;2023-03-23T05:57:32;2.38;;;0.90;;
54452;SDS011;40363;52.270;10.546;2023-03-23T05:59:59;2.03;;;0.95;;
54452;SDS011;40363;52.270;10.546;2023-03-23T06:02:31;4.88;;;1.83;;
54452;SDS011;40363;52.270;10.546;2023-03-23T06:04:59;2.13;;;1.23;;
54452;SDS011;40363;52.270;10.546;2023-03-23T06:07:25;2.13;;;1.63;;
54452;SDS011;40363;52.270;10.546;2023-03-23T06:09:53;2.78;;;1.92;;
54452;SDS011;40363;52.270;10.546;2023-03-23T06:12:20;2.83;;;1.50;;
54452;SDS011;40363;52.270;10.546;2023-03-23T06:14:47;5.05;;;1.77;;
54452;SDS011;40363;52.270;10.546;2023-03-23T06:17:14;3.72;;;1.67;;
54452;SDS011;40363;52.270;10.546;2023-03-23T06:19:41;3.40;;;1.50;;
54452;SDS011;40363;52.270;10.546;2023-03-23T06:22:07;1.67;;;1.05;;
54452;SDS011;40363;52.270;10.546;2023-03-23T06:24:34;2.42;;;1.10;;
54452;SDS011;40363;52.270;10.546;2023-03-23T06:27:02;1.88;;;1.00;;
54452;SDS011;40363;52.270;10.546;2023-03-23T06:29:29;1.40;;;1.00;;
54452;SDS011;40363;52.270;10.546;2023-03-23T06:31:56;2.20;;;1.00;;
54452;SDS011;40363;52.270;10.546;2023-03-23T06:34:27;1.45;;;0.90;;
54452;SDS011;40363;52.270;10.546;2023-03-23T06:36:54;2.47;;;1.27;;
54452;SDS011;40363;52.270;10.546;2023-03-23T06:39:21;2.20;;;1.13;;
54452;SDS011;40363;52.270;10.546;2023-03-23T06:41:48;8.40;;;1.58;;
54452;SDS011;40363;52.270;10.546;2023-03-23T06:44:17;2.40;;;1.63;;
54452;SDS011;40363;52.270;10.546;2023-03-23T06:46:43;5.65;;;1.60;;
54452;SDS011;40363;52.270;10.546;2023-03-23T06:49:10;2.88;;;1.58;;
54452;SDS011;40363;52.270;10.546;2023-03-23T06:51:37;4.05;;;1.77;;
54452;SDS011;40363;52.270;10.546;2023-03-23T06:54:03;2.85;;;1.08;;
54452;SDS011;40363;52.270;10.546;2023-03-23T06:56:31;1.90;;;1.08;;
54452;SDS011;40363;52.270;10.546;2023-03-23T06:58:58;3.65;;;1.15;;
54452;SDS011;40363;52.270;10.546;2023-03-23T07:01:26;1.27;;;0.95;;
54452;SDS011;40363;52.270;10.546;2023-03-23T07:03:53;2.35;;;1.13;;
54452;SDS011;40363;52.270;10.546;2023-03-23T07:06:20;1.95;;;1.20;;
54452;SDS011;40363;52.270;10.546;2023-03-23T07:08:47;5.07;;;1.13;;
54452;SDS011;40363;52.270;10.546;2023-03-23T07:11:13;2.08;;;0.95;;
54452;SDS011;40363;52.270;10.546;2023-03-23T07:13:40;1.65;;;1.20;;
54452;SDS011;40363;52.270;10.546;2023-03-23T07:16:07;1.67;;;1.08;;
54452;SDS011;40363;52.270;10.546;2023-03-23T07:18:35;1.10;;;0.90;;
54452;SDS011;40363;52.270;10.546;2023-03-23T07:21:02;1.80;;;1.13;;
54452;SDS011;40363;52.270;10.546;2023-03-23T07:23:29;1.75;;;1.17;;
54452;SDS011;40363;52.270;10.546;2023-03-23T07:25:56;3.45;;;1.20;;
54452;SDS011;40363;52.270;10.546;2023-03-23T07:28:22;4.82;;;1.70;;
54452;SDS011;40363;52.270;10.546;2023-03-23T07:30:50;4.03;;;1.85;;
54452;SDS011;40363;52.270;10.546;2023-03-23T07:33:17;3.15;;;1.50;;
54452;SDS011;40363;52.270;10.546;2023-03-23T07:35:45;4.22;;;1.40;;
54452;SDS011;40363;52.270;10.546;2023-03-23T07:38:12;4.97;;;1.80;;
54452;SDS011;40363;52.270;10.546;2023-03-23T07:40:40;2.47;;;1.20;;
54452;SDS011;40363;52.270;10.546;2023-03-23T07:43:07;3.05;;;1.42;;
54452;SDS011;40363;52.270;10.546;2023-03-23T07:45:33;2.22;;;1.38;;
54452;SDS011;40363;52.270;10.546;2023-03-23T07:48:00;3.25;;;1.25;;
54452;SDS011;40363;52.270;10.546;2023-03-23T07:50:27;2.58;;;1.45;;
54452;SDS011;40363;52.270;10.546;2023-03-23T07:52:55;2.15;;;1.15;;
54452;SDS011;40363;52.270;10.546;2023-03-23T07:55:23;2.95;;;1.30;;
54452;SDS011;40363;52.270;10.546;2023-03-23T07:57:53;2.30;;;1.10;;
54452;SDS011;40363;52.270;10.546;2023-03-23T08:00:20;2.40;;;1.13;;
54452;SDS011;40363;52.270;10.546;2023-03-23T08:02:49;1.95;;;0.93;;
54452;SDS011;40363;52.270;10.546;2023-03-23T08:05:17;1.40;;;0.98;;
54452;SDS011;40363;52.270;10.546;2023-03-23T08:07:44;2.25;;;1.30;;
54452;SDS011;40363;52.270;10.546;2023-03-23T08:10:13;2.05;;;0.98;;
54452;SDS011;40363;52.270;10.546;2023-03-23T08:12:41;2.10;;;0.95;;
54452;SDS011;40363;52.270;10.546;2023-03-23T08:15:09;2.88;;;0.95;;
54452;SDS011;40363;52.270;10.546;2023-03-23T08:17:39;0.98;;;0.70;;
54452;SDS011;40363;52.270;10.546;2023-03-23T08:20:07;1.27;;;1.17;;
54452;SDS011;40363;52.270;10.546;2023-03-23T08:22:37;2.22;;;0.98;;
54452;SDS011;40363;52.270;10.546;2023-03-23T08:25:05;1.40;;;0.80;;
54452;SDS011;40363;52.270;10.546;2023-03-23T08:27:34;2.10;;;0.85;;
54452;SDS011;40363;52.270;10.546;2023-03-23T08:30:02;2.03;;;0.93;;
54452;SDS011;40363;52.270;10.546;2023-03-23T08:32:29;2.08;;;1.27;;
54452;SDS011;40363;52.270;10.546;2023-03-23T08:34:56;1.67;;;0.80;;
54452;SDS011;40363;52.270;10.546;2023-03-23T08:37:23;1.30;;;1.08;;
54452;SDS011;40363;52.270;10.546;2023-03-23T08:39:50;1.85;;;1.00;;
54452;SDS011;40363;52.270;10.546;2023-03-23T08:42:17;3.00;;;0.95;;
54452;SDS011;40363;52.270;10.546;2023-03-23T08:44:45;1.40;;;0.80;;
54452;SDS011;40363;52.270;10.546;2023-03-23T08:47:13;2.72;;;0.90;;
54452;SDS011;40363;52.270;10.546;2023-03-23T08:49:39;3.15;;;1.20;;
54452;SDS011;40363;52.270;10.546;2023-03-23T08:52:07;3.13;;;1.02;;
54452;SDS011;40363;52.270;10.546;2023-03-23T08:54:34;2.17;;;1.02;;
54452;SDS011;40363;52.270;10.546;2023-03-23T08:57:01;1.13;;;0.80;;
54452;SDS011;40363;52.270;10.546;2023-03-23T08:59:28;1.90;;;0.93;;
54452;SDS011;40363;52.270;10.546;2023-03-23T09:01:57;2.15;;;0.95;;
54452;SDS011;40363;52.270;10.546;2023-03-23T09:04:23;1.20;;;0.73;;
54452;SDS011;40363;52.270;10.546;2023-03-23T09:06:59;3.35;;;1.17;;
54452;SDS011;40363;52.270;10.546;2023-03-23T09:09:29;1.92;;;0.93;;
54452;SDS011;40363;52.270;10.546;2023-03-23T09:11:55;1.23;;;0.88;;
54452;SDS011;40363;52.270;10.546;2023-03-23T09:14:22;2.90;;;0.80;;
54452;SDS011;40363;52.270;10.546;2023-03-23T09:16:48;2.20;;;1.00;;
54452;SDS011;40363;52.270;10.546;2023-03-23T09:19:16;2.38;;;1.00;;
54452;SDS011;40363;52.270;10.546;2023-03-23T09:21:43;2.00;;;1.00;;
54452;SDS011;40363;52.270;10.546;2023-03-23T09:24:10;1.10;;;1.00;;
54452;SDS011;40363;52.270;10.546;2023-03-23T09:26:37;1.23;;;1.00;;
54452;SDS011;40363;52.270;10.546;2023-03-23T09:29:04;3.63;;;1.17;;
54452;SDS011;40363;52.270;10.546;2023-03-23T09:31:31;4.20;;;1.20;;
54452;SDS011;40363;52.270;10.546;2023-03-23T09:33:57;2.47;;;1.33;;
54452;SDS011;40363;52.270;10.546;2023-03-23T09:36:27;3.45;;;1.23;;
54452;SDS011;40363;52.270;10.546;2023-03-23T09:38:56;3.17;;;1.25;;
54452;SDS011;40363;52.270;10.546;2023-03-23T09:41:37;1.90;;;1.17;;
54452;SDS011;40363;52.270;10.546;2023-03-23T09:44:27;2.38;;;1.38;;
54452;SDS011;40363;52.270;10.546;2023-03-23T09:47:02;3.78;;;1.08;;
54452;SDS011;40363;52.270;10.546;2023-03-23T09:49:35;1.75;;;1.00;;
54452;SDS011;40363;52.270;10.546;2023-03-23T09:52:09;2.80;;;1.00;;
54452;SDS011;40363;52.270;10.546;2023-03-23T09:54:40;2.20;;;0.80;;
54452;SDS011;40363;52.270;10.546;2023-03-23T09:57:11;2.92;;;0.90;;
54452;SDS011;40363;52.270;10.546;2023-03-23T09:59:44;1.88;;;0.88;;
54452;SDS011;40363;52.270;10.546;2023-03-23T10:02:18;2.28;;;0.95;;
54452;SDS011;40363;52.270;10.546;2023-03-23T10:04:48;3.13;;;1.10;;
54452;SDS011;40363;52.270;10.546;2023-03-23T10:07:19;2.05;;;1.15;;
54452;SDS011;40363;52.270;10.546;2023-03-23T10:09:53;1.88;;;1.00;;
54452;SDS011;40363;52.270;10.546;2023-03-23T10:12:25;1.40;;;0.82;;
54452;SDS011;40363;52.270;10.546;2023-03-23T10:15:02;1.27;;;0.70;;
54452;SDS011;40363;52.270;10.546;2023-03-23T10:17:37;2.13;;;0.77;;
54452;SDS011;40363;52.270;10.546;2023-03-23T10:23:02;10.07;;;1.88;;
54452;SDS011;40363;52.270;10.546;2023-03-23T10:25:40;3.67;;;0.90;;
54452;SDS011;40363;52.270;10.546;2023-03-23T10:28:10;2.85;;;1.33;;
54452;SDS011;40363;52.270;10.546;2023-03-23T10:30:39;2.25;;;1.02;;
54452;SDS011;40363;52.270;10.546;2023-03-23T10:33:11;5.93;;;2.00;;
54452;SDS011;40363;52.270;10.546;2023-03-23T10:35:43;3.60;;;1.17;;
54452;SDS011;40363;52.270;10.546;2023-03-23T10:38:15;2.95;;;1.10;;
54452;SDS011;40363;52.270;10.546;2023-03-23T10:40:48;4.28;;;1.02;;
54452;SDS011;40363;52.270;10.546;2023-03-23T10:43:19;2.83;;;1.05;;
54452;SDS011;40363;52.270;10.546;2023-03-23T10:45:48;2.90;;;1.05;;
54452;SDS011;40363;52.270;10.546;2023-03-23T10:48:22;4.13;;;1.20;;
54452;SDS011;40363;52.270;10.546;2023-03-23T10:50:52;5.53;;;2.30;;
54452;SDS011;40363;52.270;10.546;2023-03-23T10:53:25;3.08;;;1.60;;
54452;SDS011;40363;52.270;10.546;2023-03-23T10:55:57;3.55;;;1.13;;
54452;SDS011;40363;52.270;10.546;2023-03-23T10:58:26;3.28;;;1.27;;
54452;SDS011;40363;52.270;10.546;2023-03-23T11:00:55;4.95;;;1.05;;
54452;SDS011;40363;52.270;10.546;2023-03-23T11:03:27;4.32;;;1.08;;
54452;SDS011;40363;52.270;10.546;2023-03-23T11:06:03;1.85;;;1.05;;
54452;SDS011;40363;52.270;10.546;2023-03-23T11:08:34;2.60;;;1.00;;
54452;SDS011;40363;52.270;10.546;2023-03-23T11:11:09;4.78;;;1.23;;
54452;SDS011;40363;52.270;10.546;2023-03-23T11:13:39;5.20;;;1.73;;
54452;SDS011;40363;52.270;10.546;2023-03-23T11:16:09;3.33;;;1.27;;
54452;SDS011;40363;52.270;10.546;2023-03-23T11:18:37;3.30;;;1.17;;
54452;SDS011;40363;52.270;10.546;2023-03-23T11:21:06;2.85;;;0.90;;
54452;SDS011;40363;52.270;10.546;2023-03-23T11:23:37;5.10;;;1.35;;
54452;SDS011;40363;52.270;10.546;2023-03-23T11:26:09;3.38;;;1.08;;
54452;SDS011;40363;52.270;10.546;2023-03-23T11:28:42;3.35;;;1.00;;
54452;SDS011;40363;52.270;10.546;2023-03-23T11:31:12;5.40;;;1.30;;
54452;SDS011;40363;52.270;10.546;2023-03-23T11:33:47;2.42;;;0.90;;
54452;SDS011;40363;52.270;10.546;2023-03-23T11:36:18;4.38;;;0.95;;
54452;SDS011;40363;52.270;10.546;2023-03-23T11:38:46;1.50;;;1.30;;
54452;SDS011;40363;52.270;10.546;2023-03-23T11:41:17;5.70;;;1.30;;
54452;SDS011;40363;52.270;10.546;2023-03-23T11:43:45;5.40;;;2.40;;
54452;SDS011;40363;52.270;10.546;2023-03-23T11:46:18;3.65;;;1.08;;
54452;SDS011;40363;52.270;10.546;2023-03-23T11:48:53;3.08;;;1.02;;
54452;SDS011;40363;52.270;10.546;2023-03-23T11:51:24;3.10;;;1.10;;
54452;SDS011;40363;52.270;10.546;2023-03-23T11:54:00;5.57;;;1.23;;
54452;SDS011;40363;52.270;10.546;2023-03-23T11:56:33;3.67;;;1.17;;
54452;SDS011;40363;52.270;10.546;2023-03-23T11:59:01;3.28;;;0.90;;
54452;SDS011;40363;52.270;10.546;2023-03-23T12:01:37;3.22;;;1.17;;
54452;SDS011;40363;52.270;10.546;2023-03-23T12:04:19;6.72;;;1.73;;
54452;SDS011;40363;52.270;10.546;2023-03-23T12:07:00;2.67;;;0.98;;
54452;SDS011;40363;52.270;10.546;2023-03-23T12:09:41;2.60;;;1.02;;
54452;SDS011;40363;52.270;10.546;2023-03-23T12:12:16;1.17;;;1.00;;
54452;SDS011;40363;52.270;10.546;2023-03-23T12:14:53;2.72;;;0.95;;
54452;SDS011;40363;52.270;10.546;2023-03-23T12:17:30;4.07;;;1.00;;
54452;SDS011;40363;52.270;10.546;2023-03-23T12:20:08;2.15;;;0.82;;
54452;SDS011;40363;52.270;10.546;2023-03-23T12:22:46;2.17;;;0.90;;
54452;SDS011;40363;52.270;10.546;2023-03-23T12:25:38;3.45;;;0.63;;
54452;SDS011;40363;52.270;10.546;2023-03-23T12:28:27;2.88;;;1.02;;
54452;SDS011;40363;52.270;10.546;2023-03-23T12:31:03;6.32;;;1.02;;
54452;SDS011;40363;52.270;10.546;2023-03-23T12:33:39;3.60;;;1.02;;
54452;SDS011;40363;52.270;10.546;2023-03-23T12:36:18;2.78;;;1.00;;
54452;SDS011;40363;52.270;10.546;2023-03-23T12:38:55;1.48;;;0.90;;
54452;SDS011;40363;52.270;10.546;2023-03-23T12:41:40;3.35;;;0.93;;
54452;SDS011;40363;52.270;10.546;2023-03-23T12:44:13;3.53;;;1.00;;
54452;SDS011;40363;52.270;10.546;2023-03-23T12:46:52;3.35;;;1.17;;
54452;SDS011;40363;52.270;10.546;2023-03-23T12:49:29;3.80;;;1.42;;
54452;SDS011;40363;52.270;10.546;2023-03-23T12:52:01;2.72;;;1.10;;
54452;SDS011;40363;52.270;10.546;2023-03-23T12:54:37;2.60;;;1.35;;
54452;SDS011;40363;52.270;10.546;2023-03-23T12:57:11;1.55;;;0.80;;
54452;SDS011;40363;52.270;10.546;2023-03-23T12:59:43;6.75;;;2.03;;
54452;SDS011;40363;52.270;10.546;2023-03-23T13:02:16;8.77;;;3.78;;
54452;SDS011;40363;52.270;10.546;2023-03-23T13:04:49;3.42;;;1.30;;
54452;SDS011;40363;52.270;10.546;2023-03-23T13:07:19;1.95;;;1.15;;
54452;SDS011;40363;52.270;10.546;2023-03-23T13:09:53;2.83;;;1.10;;
54452;SDS011;40363;52.270;10.546;2023-03-23T13:12:28;2.42;;;1.00;;
54452;SDS011;40363;52.270;10.546;2023-03-23T13:14:58;3.65;;;1.10;;
54452;SDS011;40363;52.270;10.546;2023-03-23T13:17:35;2.38;;;1.23;;
54452;SDS011;40363;52.270;10.546;2023-03-23T13:23:11;5.10;;;1.00;;
54452;SDS011;40363;52.270;10.546;2023-03-23T13:25:46;5.28;;;1.20;;
54452;SDS011;40363;52.270;10.546;2023-03-23T13:28:20;3.83;;;1.05;;
54452;SDS011;40363;52.270;10.546;2023-03-23T13:30:54;3.83;;;0.95;;
54452;SDS011;40363;52.270;10.546;2023-03-23T13:33:22;2.85;;;1.30;;
54452;SDS011;40363;52.270;10.546;2023-03-23T13:35:49;1.35;;;0.82;;
54452;SDS011;40363;52.270;10.546;2023-03-23T13:38:18;2.50;;;1.15;;
54452;SDS011;40363;52.270;10.546;2023-03-23T13:40:47;2.33;;;1.05;;
54452;SDS011;40363;52.270;10.546;2023-03-23T13:43:18;1.17;;;0.70;;
54452;SDS011;40363;52.270;10.546;2023-03-23T13:45:53;3.15;;;0.70;;
54452;SDS011;40363;52.270;10.546;2023-03-23T13:48:22;1.63;;;0.80;;
54452;SDS011;40363;52.270;10.546;2023-03-23T13:50:51;2.58;;;0.90;;
54452;SDS011;40363;52.270;10.546;2023-03-23T13:53:23;3.08;;;1.00;;
54452;SDS011;40363;52.270;10.546;2023-03-23T13:56:07;5.03;;;1.48;;
54452;SDS011;40363;52.270;10.546;2023-03-23T13:58:46;2.88;;;0.90;;
54452;SDS011;40363;52.270;10.546;2023-03-23T14:01:15;2.75;;;0.88;;
54452;SDS011;40363;52.270;10.546;2023-03-23T14:03:44;2.92;;;0.75;;
54452;SDS011;40363;52.270;10.546;2023-03-23T14:06:16;2.65;;;1.10;;
54452;SDS011;40363;52.270;10.546;2023-03-23T14:08:45;1.85;;;0.95;;
54452;SDS011;40363;52.270;10.546;2023-03-23T14:11:17;2.10;;;1.05;;
54452;SDS011;40363;52.270;10.546;2023-03-23T14:13:56;0.98;;;0.50;;
54452;SDS011;40363;52.270;10.546;2023-03-23T14:16:31;4.10;;;1.60;;
54452;SDS011;40363;52.270;10.546;2023-03-23T14:19:03;6.07;;;2.22;;
54452;SDS011;40363;52.270;10.546;2023-03-23T14:21:40;1.15;;;0.52;;
54452;SDS011;40363;52.270;10.546;2023-03-23T14:24:09;1.50;;;0.40;;
54452;SDS011;40363;52.270;10.546;2023-03-23T14:26:37;1.30;;;0.50;;
54452;SDS011;40363;52.270;10.546;2023-03-23T14:29:09;1.17;;;0.50;;
54452;SDS011;40363;52.270;10.546;2023-03-23T14:31:37;3.30;;;0.60;;
54452;SDS011;40363;52.270;10.546;2023-03-23T14:34:04;1.90;;;0.60;;
54452;SDS011;40363;52.270;10.546;2023-03-23T14:36:39;7.00;;;0.60;;
54452;SDS011;40363;52.270;10.546;2023-03-23T14:39:07;2.10;;;0.40;;
54452;SDS011;40363;52.270;10.546;2023-03-23T14:41:42;0.40;;;0.30;;
54452;SDS011;40363;52.270;10.546;2023-03-23T14:44:12;0.63;;;0.30;;
54452;SDS011;40363;52.270;10.546;2023-03-23T14:46:41;0.60;;;0.40;;
54452;SDS011;40363;52.270;10.546;2023-03-23T14:49:10;1.05;;;0.50;;
54452;SDS011;40363;52.270;10.546;2023-03-23T14:51:46;2.75;;;0.80;;
54452;SDS011;40363;52.270;10.546;2023-03-23T14:54:13;1.83;;;0.40;;
54452;SDS011;40363;52.270;10.546;2023-03-23T14:56:41;0.32;;;0.32;;
54452;SDS011;40363;52.270;10.546;2023-03-23T14:59:09;1.75;;;0.60;;